Time;durP1;ratioP1;P1;durP2;ratioP2;P2;SDS_P1;SDS_P2;PMS_P1;PMS_P2;Temp;Humidity;BMP_temperature;BMP_pressure;BME280_temperature;BME280_humidity;BME280_pressure;Samples;Min_cycle;Max_cycle;Signal;HPM_P1;HPM_P2
2022/08/26 00:01:55;;;;;;;8.40;4.97;;;24.40;65.60;;;;;;5036314;28;20029;-11
2022/08/26 00:04:23;;;;;;;7.35;4.65;;;24.30;65.80;;;;;;5036620;28;20025;-10
2022/08/26 00:06:50;;;;;;;6.82;4.80;;;24.30;65.90;;;;;;5036005;28;20033;-11
2022/08/26 00:09:16;;;;;;;7.13;4.95;;;24.30;66.00;;;;;;5036181;28;20087;-11
2022/08/26 00:11:43;;;;;;;6.30;4.50;;;24.30;66.10;;;;;;5035774;28;20029;-10
2022/08/26 00:14:09;;;;;;;7.05;5.20;;;24.20;66.20;;;;;;5034817;28;20037;-10
2022/08/26 00:16:35;;;;;;;8.43;4.22;;;24.20;66.30;;;;;;5036051;28;20481;-11
2022/08/26 00:19:01;;;;;;;6.35;4.85;;;24.20;66.40;;;;;;5036364;28;20037;-11
2022/08/26 00:21:27;;;;;;;7.80;5.00;;;24.20;66.70;;;;;;5035891;28;20021;-10
2022/08/26 00:23:53;;;;;;;7.13;4.85;;;24.10;67.00;;;;;;5035699;28;20031;-10
2022/08/26 00:26:19;;;;;;;7.10;4.70;;;24.10;67.20;;;;;;5035904;28;20052;-11
2022/08/26 00:28:45;;;;;;;7.25;5.03;;;24.00;67.30;;;;;;5035436;28;20409;-10
2022/08/26 00:31:11;;;;;;;6.90;5.18;;;24.00;67.30;;;;;;5034204;28;20026;-10
2022/08/26 00:33:38;;;;;;;8.60;5.32;;;24.00;67.40;;;;;;5035766;28;20037;-11
2022/08/26 00:36:04;;;;;;;7.50;5.10;;;24.00;67.40;;;;;;5035426;28;20033;-11
2022/08/26 00:38:30;;;;;;;6.28;5.07;;;23.90;67.50;;;;;;5035301;28;20104;-12
2022/08/26 00:40:57;;;;;;;6.53;4.80;;;23.90;67.60;;;;;;5035451;28;20032;-10
2022/08/26 00:43:24;;;;;;;8.20;5.22;;;23.90;67.60;;;;;;5035230;28;20026;-10
2022/08/26 00:45:56;;;;;;;6.57;4.95;;;23.90;67.70;;;;;;5035831;28;20029;-10
2022/08/26 00:48:26;;;;;;;6.77;4.97;;;23.90;67.60;;;;;;5035298;28;20465;-11
2022/08/26 00:51:00;;;;;;;7.10;4.68;;;23.90;67.50;;;;;;5035281;28;20017;-11
2022/08/26 00:53:30;;;;;;;6.35;4.60;;;23.90;67.50;;;;;;5035411;28;20025;-10
2022/08/26 00:56:05;;;;;;;8.77;5.82;;;23.90;67.40;;;;;;5035093;28;20120;-10
2022/08/26 00:58:33;;;;;;;7.70;5.82;;;23.90;67.50;;;;;;5035325;28;20037;-11
2022/08/26 01:01:00;;;;;;;8.88;5.10;;;23.90;67.90;;;;;;5034746;28;20056;-10
2022/08/26 01:03:30;;;;;;;7.45;4.75;;;23.90;68.10;;;;;;5035485;28;20382;-11
2022/08/26 01:05:59;;;;;;;7.00;4.80;;;23.90;67.90;;;;;;5035148;28;20104;-11
2022/08/26 01:08:26;;;;;;;8.25;5.18;;;23.90;67.90;;;;;;5035033;28;20025;-10
2022/08/26 01:10:55;;;;;;;6.80;4.18;;;23.90;67.80;;;;;;5034551;28;20489;-10
2022/08/26 01:13:21;;;;;;;5.28;4.38;;;23.90;67.70;;;;;;5035359;28;20033;-10
2022/08/26 01:15:52;;;;;;;7.95;5.35;;;23.90;67.90;;;;;;5034606;28;20017;-11
2022/08/26 01:18:19;;;;;;;6.90;5.25;;;23.90;69.00;;;;;;5035029;28;20093;-11
2022/08/26 01:21:10;;;;;;;7.05;5.20;;;23.90;69.00;;;;;;5034914;28;20053;-10
2022/08/26 01:23:44;;;;;;;7.85;5.45;;;23.80;69.90;;;;;;5034734;28;20445;-11
2022/08/26 01:26:41;;;;;;;7.95;5.30;;;23.80;69.50;;;;;;5034804;28;20104;-11
2022/08/26 01:29:13;;;;;;;7.57;5.88;;;23.80;69.70;;;;;;5034106;28;20058;-11
2022/08/26 01:31:44;;;;;;;6.10;4.75;;;23.70;69.60;;;;;;5034339;28;20045;-11
2022/08/26 01:34:24;;;;;;;6.95;5.15;;;23.70;69.80;;;;;;5034362;28;20482;-11
2022/08/26 01:36:55;;;;;;;7.78;5.07;;;23.60;69.90;;;;;;5034169;28;20025;-11
2022/08/26 01:39:21;;;;;;;8.48;4.88;;;23.70;69.60;;;;;;5034558;28;20021;-11
2022/08/26 01:41:50;;;;;;;6.97;4.80;;;23.60;69.50;;;;;;5034006;28;20022;-10
2022/08/26 01:44:21;;;;;;;6.43;5.10;;;23.60;69.40;;;;;;5034379;28;20124;-11
2022/08/26 01:46:50;;;;;;;7.85;5.15;;;23.70;69.30;;;;;;5034292;28;20032;-11
2022/08/26 01:49:18;;;;;;;7.43;5.47;;;23.60;69.20;;;;;;5034258;28;20025;-11
2022/08/26 01:51:46;;;;;;;7.47;5.40;;;23.60;69.20;;;;;;5032676;28;20485;-11
2022/08/26 01:54:12;;;;;;;8.02;5.53;;;23.60;69.20;;;;;;5034787;28;20021;-10
2022/08/26 01:56:39;;;;;;;8.63;5.95;;;23.60;69.10;;;;;;5032874;28;20099;-11
2022/08/26 01:59:09;;;;;;;8.23;5.65;;;23.60;69.50;;;;;;5032378;28;20432;-10
2022/08/26 02:01:36;;;;;;;7.45;5.55;;;23.60;69.90;;;;;;5033900;28;20030;-11
2022/08/26 02:04:08;;;;;;;9.27;6.13;;;23.50;69.90;;;;;;5034038;28;20053;-11
2022/08/26 02:06:37;;;;;;;8.15;5.50;;;23.50;70.00;;;;;;5033851;28;20052;-10
2022/08/26 02:09:05;;;;;;;8.15;5.40;;;23.40;69.90;;;;;;5033530;28;20018;-10
2022/08/26 02:11:33;;;;;;;7.03;5.30;;;23.40;69.80;;;;;;5033640;28;20021;-11
2022/08/26 02:14:16;;;;;;;6.05;4.93;;;23.40;69.70;;;;;;5033585;28;20434;-11
2022/08/26 02:16:46;;;;;;;6.68;5.15;;;23.40;69.70;;;;;;5033939;28;20088;-10
2022/08/26 02:19:19;;;;;;;7.90;5.30;;;23.40;69.70;;;;;;5034177;28;20486;-11
2022/08/26 02:21:47;;;;;;;7.20;5.20;;;23.30;69.70;;;;;;5033706;28;20022;-10
2022/08/26 02:24:19;;;;;;;6.65;5.10;;;23.30;69.80;;;;;;5033598;28;20021;-10
2022/08/26 02:26:45;;;;;;;7.22;4.95;;;23.30;69.90;;;;;;5033528;28;20513;-11
2022/08/26 02:29:30;;;;;;;7.40;5.05;;;23.20;70.00;;;;;;5033000;28;20053;-10
2022/08/26 02:31:57;;;;;;;5.88;4.43;;;23.10;70.10;;;;;;5033300;28;20025;-11
2022/08/26 02:34:31;;;;;;;7.35;5.93;;;23.10;70.20;;;;;;5033618;28;20076;-10
2022/08/26 02:37:04;;;;;;;9.30;6.05;;;23.00;70.50;;;;;;5033017;28;20021;-10
2022/08/26 02:39:32;;;;;;;9.38;5.78;;;22.90;70.70;;;;;;5033277;28;20100;-11
2022/08/26 02:41:59;;;;;;;8.07;5.82;;;22.80;70.80;;;;;;5031977;28;20354;-11
2022/08/26 02:44:26;;;;;;;7.28;5.35;;;22.80;71.00;;;;;;5033204;28;20092;-10
2022/08/26 02:46:53;;;;;;;6.45;5.10;;;22.70;71.30;;;;;;5033257;28;20018;-10
2022/08/26 02:49:22;;;;;;;6.85;5.40;;;22.60;71.40;;;;;;5032972;28;20037;-12
2022/08/26 02:51:48;;;;;;;8.65;5.32;;;22.50;71.70;;;;;;5033245;28;20042;-10
2022/08/26 02:54:16;;;;;;;6.68;5.25;;;22.40;71.70;;;;;;5032616;28;20022;-10
2022/08/26 02:56:43;;;;;;;8.93;5.90;;;22.50;71.80;;;;;;5034187;28;20036;-10
2022/08/26 02:59:11;;;;;;;7.45;5.90;;;22.40;71.90;;;;;;5033137;28;20057;-10
2022/08/26 03:01:39;;;;;;;9.40;5.30;;;22.40;72.00;;;;;;5033209;28;20032;-11
2022/08/26 03:04:09;;;;;;;6.43;5.15;;;22.30;72.10;;;;;;5032975;28;20477;-10
2022/08/26 03:06:36;;;;;;;7.88;4.90;;;22.30;72.30;;;;;;5032850;28;20032;-10
2022/08/26 03:09:03;;;;;;;7.28;5.00;;;22.20;72.20;;;;;;5032696;28;20029;-10
2022/08/26 03:11:29;;;;;;;7.07;5.00;;;22.20;72.30;;;;;;5033167;28;20065;-10
2022/08/26 03:13:57;;;;;;;6.75;5.13;;;22.20;72.50;;;;;;5033121;28;20120;-11
2022/08/26 03:16:23;;;;;;;8.07;5.93;;;22.10;72.80;;;;;;5033172;28;20450;-11
2022/08/26 03:18:49;;;;;;;7.60;5.60;;;22.10;73.10;;;;;;5032765;28;20509;-11
2022/08/26 03:21:17;;;;;;;7.00;5.32;;;22.00;73.40;;;;;;5032788;28;20053;-10
2022/08/26 03:23:44;;;;;;;7.20;4.88;;;21.90;73.50;;;;;;5032671;28;20033;-12
2022/08/26 03:26:12;;;;;;;10.43;6.28;;;21.90;73.60;;;;;;5032781;28;20124;-10
2022/08/26 03:31:23;;;;;;;8.95;6.40;;;21.70;74.10;;;;;;5033130;28;20044;-11
2022/08/26 03:33:49;;;;;;;8.20;6.35;;;21.70;74.20;;;;;;5033834;28;20056;-10
2022/08/26 03:36:15;;;;;;;8.73;5.82;;;21.60;74.40;;;;;;5033236;28;20079;-10
2022/08/26 03:38:42;;;;;;;8.75;6.25;;;21.50;74.60;;;;;;5032557;28;20025;-10
2022/08/26 03:41:10;;;;;;;8.27;5.47;;;21.40;74.90;;;;;;5032693;28;20032;-10
2022/08/26 03:43:37;;;;;;;7.50;5.53;;;21.40;74.90;;;;;;5032858;28;20029;-10
2022/08/26 03:46:08;;;;;;;8.43;6.75;;;21.40;75.00;;;;;;5032782;28;20064;-10
2022/08/26 03:48:35;;;;;;;10.50;6.22;;;21.40;75.00;;;;;;5032891;28;20083;-11
2022/08/26 03:51:03;;;;;;;9.38;6.25;;;21.30;75.10;;;;;;5032227;28;20516;-10
2022/08/26 03:53:30;;;;;;;9.32;5.82;;;21.30;75.20;;;;;;5032614;28;20529;-11
2022/08/26 03:55:56;;;;;;;8.13;5.40;;;21.30;75.30;;;;;;5033258;28;20026;-11
2022/08/26 03:58:25;;;;;;;8.95;6.30;;;21.20;75.40;;;;;;5032706;28;20432;-10
2022/08/26 04:00:51;;;;;;;9.27;5.72;;;21.20;75.50;;;;;;5032589;28;20086;-11
2022/08/26 04:03:56;;;;;;;8.52;5.93;;;21.20;75.50;;;;;;5032394;28;20034;-11
2022/08/26 04:06:03;;;;;;;10.75;5.75;;;21.20;75.70;;;;;;5033585;28;20037;-11
2022/08/26 04:08:29;;;;;;;7.90;5.70;;;21.10;75.70;;;;;;5035873;28;20551;-11
2022/08/26 04:10:55;;;;;;;9.65;5.65;;;21.10;75.60;;;;;;5034464;28;20030;-10
2022/08/26 04:13:21;;;;;;;9.25;5.93;;;21.10;75.80;;;;;;5035860;28;20393;-10
2022/08/26 04:15:47;;;;;;;8.05;5.60;;;21.10;75.90;;;;;;5035815;28;20022;-10
2022/08/26 04:18:14;;;;;;;9.63;6.63;;;21.10;75.60;;;;;;5036134;28;20092;-10
2022/08/26 04:20:40;;;;;;;9.48;6.22;;;21.00;75.80;;;;;;5035752;28;20026;-11
2022/08/26 04:23:06;;;;;;;8.10;6.10;;;21.00;76.10;;;;;;5035412;28;20028;-11
2022/08/26 04:25:33;;;;;;;7.57;5.88;;;21.00;76.70;;;;;;5035856;28;20024;-10
2022/08/26 04:27:58;;;;;;;7.03;5.13;;;20.90;76.80;;;;;;5034132;28;20075;-11
2022/08/26 04:30:24;;;;;;;6.85;5.55;;;20.90;76.50;;;;;;5036347;28;20033;-11
2022/08/26 04:32:50;;;;;;;7.63;6.22;;;20.80;76.70;;;;;;5035607;28;20041;-10
2022/08/26 04:35:17;;;;;;;8.43;6.30;;;20.80;76.80;;;;;;5036079;28;20473;-11
2022/08/26 04:37:43;;;;;;;8.77;5.97;;;20.80;76.90;;;;;;5034149;28;20033;-10
2022/08/26 04:40:10;;;;;;;8.77;5.82;;;20.70;77.00;;;;;;5035345;28;20018;-10
2022/08/26 04:42:36;;;;;;;10.15;6.65;;;20.70;77.10;;;;;;5035583;28;20064;-11
2022/08/26 04:45:03;;;;;;;9.13;6.00;;;20.70;77.40;;;;;;5035011;28;20481;-11
2022/08/26 04:47:29;;;;;;;12.43;7.05;;;20.70;77.20;;;;;;5035496;28;20022;-10
2022/08/26 04:49:56;;;;;;;9.63;6.60;;;20.60;77.20;;;;;;5033822;28;20383;-10
2022/08/26 04:52:23;;;;;;;9.18;6.45;;;20.70;77.20;;;;;;5033823;28;20028;-11
2022/08/26 04:54:49;;;;;;;8.30;6.18;;;20.70;77.10;;;;;;5034914;28;20033;-10
2022/08/26 04:57:15;;;;;;;7.57;6.13;;;20.80;77.00;;;;;;5035306;28;20021;-11
2022/08/26 04:59:41;;;;;;;9.77;6.55;;;20.80;76.90;;;;;;5034977;28;20481;-10
2022/08/26 05:02:07;;;;;;;8.75;6.25;;;20.90;76.80;;;;;;5034962;28;20028;-11
2022/08/26 05:04:33;;;;;;;13.07;8.05;;;20.90;76.70;;;;;;5035065;28;20033;-10
2022/08/26 05:07:01;;;;;;;10.50;7.13;;;21.00;76.60;;;;;;5033385;28;20033;-11
2022/08/26 05:09:27;;;;;;;10.18;7.10;;;21.00;76.60;;;;;;5034747;28;20029;-10
2022/08/26 05:11:53;;;;;;;9.15;6.35;;;21.10;76.50;;;;;;5034712;28;20030;-11
2022/08/26 05:14:21;;;;;;;8.93;6.10;;;21.20;76.40;;;;;;5034855;28;20504;-11
2022/08/26 05:16:48;;;;;;;8.35;5.80;;;21.30;76.20;;;;;;5034035;28;20163;-11
2022/08/26 05:19:15;;;;;;;9.70;6.43;;;21.40;76.00;;;;;;5034893;28;20425;-10
2022/08/26 05:21:42;;;;;;;8.25;6.05;;;21.40;75.70;;;;;;5034901;28;20104;-11
2022/08/26 05:24:11;;;;;;;10.18;6.57;;;21.50;75.50;;;;;;5034733;28;20041;-10
2022/08/26 05:26:37;;;;;;;9.65;6.05;;;21.60;75.30;;;;;;5034466;28;20025;-11
2022/08/26 05:29:04;;;;;;;10.18;7.97;;;21.70;74.90;;;;;;5016300;28;20124;-10
2022/08/26 05:31:32;;;;;;;10.30;6.47;;;21.90;74.80;;;;;;5034247;28;20520;-10
2022/08/26 05:34:00;;;;;;;9.27;6.85;;;21.90;74.30;;;;;;5034549;28;20026;-11
2022/08/26 05:36:30;;;;;;;9.73;6.28;;;22.00;74.30;;;;;;5034506;28;20030;-11
2022/08/26 05:38:56;;;;;;;10.10;6.75;;;22.20;74.10;;;;;;5032846;28;20029;-11
2022/08/26 05:41:29;;;;;;;12.20;7.18;;;22.20;74.00;;;;;;5034188;28;20056;-11
2022/08/26 05:44:00;;;;;;;9.52;6.60;;;22.40;74.40;;;;;;5034185;28;20032;-10
2022/08/26 05:46:27;;;;;;;12.52;8.25;;;22.60;74.20;;;;;;5034027;28;20026;-11
2022/08/26 05:48:55;;;;;;;13.68;9.00;;;22.70;74.00;;;;;;5033859;28;20101;-11
2022/08/26 05:51:21;;;;;;;8.68;6.82;;;22.90;74.40;;;;;;5033937;28;20037;-11
2022/08/26 05:53:48;;;;;;;11.50;7.45;;;22.90;73.70;;;;;;5033882;28;20036;-10
2022/08/26 05:56:14;;;;;;;9.10;6.70;;;23.10;73.70;;;;;;5034241;28;20040;-11
2022/08/26 05:58:42;;;;;;;11.07;6.88;;;23.20;73.30;;;;;;5033910;28;20037;-10
2022/08/26 06:01:14;;;;;;;12.45;6.80;;;23.30;73.00;;;;;;5033652;28;20033;-10
2022/08/26 06:03:45;;;;;;;10.05;6.30;;;23.50;72.70;;;;;;5033870;28;20397;-10
2022/08/26 06:06:14;;;;;;;11.40;6.63;;;23.60;72.40;;;;;;5034111;28;20037;-10
2022/08/26 06:08:41;;;;;;;9.48;6.68;;;23.90;72.10;;;;;;5033927;28;20025;-11
2022/08/26 06:11:12;;;;;;;12.32;7.50;;;24.00;71.60;;;;;;5033373;28;20030;-10
2022/08/26 06:13:39;;;;;;;11.07;6.82;;;24.20;70.70;;;;;;5033898;28;20057;-11
2022/08/26 06:16:11;;;;;;;10.23;6.88;;;24.30;70.20;;;;;;5034473;28;20361;-10
2022/08/26 06:18:41;;;;;;;10.70;7.20;;;24.40;70.20;;;;;;5033561;28;20477;-10
2022/08/26 06:21:18;;;;;;;9.45;6.82;;;24.60;69.90;;;;;;5033693;28;20108;-10
2022/08/26 06:26:31;;;;;;;12.18;6.38;;;24.90;67.10;;;;;;5034102;28;20090;-10
2022/08/26 06:28:57;;;;;;;9.90;5.90;;;25.10;67.40;;;;;;5032553;28;20045;-10
2022/08/26 06:31:24;;;;;;;8.82;6.28;;;25.20;67.40;;;;;;5034289;28;20033;-10
2022/08/26 06:33:51;;;;;;;11.95;6.47;;;25.40;67.00;;;;;;5033336;28;20037;-10
2022/08/26 06:36:24;;;;;;;9.93;6.10;;;25.50;66.60;;;;;;5033615;28;20029;-11
2022/08/26 06:38:52;;;;;;;9.82;5.75;;;25.70;67.10;;;;;;5033007;28;20517;-10
2022/08/26 06:41:21;;;;;;;10.88;5.50;;;25.90;66.40;;;;;;5033488;28;20087;-10
2022/08/26 06:43:48;;;;;;;7.32;4.97;;;26.10;65.30;;;;;;5033475;28;20026;-11
2022/08/26 06:46:16;;;;;;;7.22;5.50;;;26.20;64.90;;;;;;5033490;28;20417;-11
2022/08/26 06:48:43;;;;;;;6.90;5.32;;;26.30;64.20;;;;;;5033765;28;20017;-10
2022/08/26 06:51:12;;;;;;;9.38;5.90;;;26.40;64.30;;;;;;5033366;28;20550;-10
2022/08/26 06:53:40;;;;;;;7.05;5.20;;;26.50;64.20;;;;;;5032968;28;20061;-10
2022/08/26 06:56:09;;;;;;;8.23;5.63;;;26.60;63.80;;;;;;5033137;28;20087;-10
2022/08/26 06:58:37;;;;;;;8.48;5.43;;;26.60;63.20;;;;;;5033337;28;20080;-10
2022/08/26 07:01:04;;;;;;;8.00;5.30;;;26.60;63.10;;;;;;5033029;28;20030;-10
2022/08/26 07:03:30;;;;;;;8.30;5.93;;;26.70;62.90;;;;;;5033465;28;20075;-10
2022/08/26 07:06:02;;;;;;;8.38;5.38;;;26.60;62.40;;;;;;5033175;28;20029;-11
2022/08/26 07:08:29;;;;;;;8.70;5.43;;;26.60;62.60;;;;;;5031663;28;20084;-10
2022/08/26 07:10:55;;;;;;;7.78;5.13;;;26.60;62.50;;;;;;5032924;28;20029;-11
2022/08/26 07:13:22;;;;;;;10.27;5.90;;;26.70;62.70;;;;;;5032880;28;20033;-10
2022/08/26 07:15:48;;;;;;;8.05;4.88;;;26.80;62.60;;;;;;5032897;28;20482;-11
2022/08/26 07:18:20;;;;;;;8.48;6.15;;;26.90;62.50;;;;;;5032993;28;20025;-10
2022/08/26 07:20:46;;;;;;;7.07;5.32;;;27.10;61.20;;;;;;5033367;28;20029;-10
2022/08/26 07:23:12;;;;;;;10.10;5.93;;;27.40;60.40;;;;;;5032697;28;20097;-11
2022/08/26 07:25:40;;;;;;;9.05;5.70;;;27.50;59.30;;;;;;5033409;28;20053;-10
2022/08/26 07:28:07;;;;;;;11.68;6.47;;;27.60;59.20;;;;;;5032557;28;20037;-10
2022/08/26 07:30:39;;;;;;;7.80;5.78;;;27.90;58.30;;;;;;5033055;28;20041;-10
2022/08/26 07:33:06;;;;;;;9.63;6.18;;;28.20;57.50;;;;;;5032557;28;20022;-10
2022/08/26 07:35:32;;;;;;;7.45;5.18;;;28.50;56.50;;;;;;5032687;28;20029;-11
2022/08/26 07:37:58;;;;;;;9.60;5.90;;;28.50;56.60;;;;;;5032566;28;20029;-11
2022/08/26 07:40:24;;;;;;;7.40;5.55;;;28.70;56.20;;;;;;5034460;28;20022;-11
2022/08/26 07:42:50;;;;;;;8.07;5.20;;;28.90;56.10;;;;;;5036257;28;20057;-11
2022/08/26 07:45:16;;;;;;;8.63;5.78;;;29.10;55.80;;;;;;5036419;28;20056;-9
2022/08/26 07:47:42;;;;;;;10.38;7.10;;;29.40;55.50;;;;;;5036385;28;20053;-10
2022/08/26 07:50:09;;;;;;;9.20;6.65;;;29.70;52.90;;;;;;5035004;28;20030;-11
2022/08/26 07:52:37;;;;;;;10.70;6.97;;;29.90;52.70;;;;;;5036180;28;20116;-10
2022/08/26 07:55:06;;;;;;;10.63;6.65;;;30.10;53.00;;;;;;5036304;28;20033;-10
2022/08/26 07:57:33;;;;;;;10.15;7.05;;;30.40;52.10;;;;;;5036728;28;20023;-10
2022/08/26 08:00:00;;;;;;;10.02;6.80;;;30.40;51.10;;;;;;5036460;28;20052;-10
2022/08/26 08:02:27;;;;;;;10.30;6.55;;;30.60;51.20;;;;;;5036465;28;20096;-11
2022/08/26 08:04:55;;;;;;;10.63;7.15;;;30.80;50.00;;;;;;5035847;28;20034;-10
2022/08/26 08:07:21;;;;;;;9.15;6.28;;;31.00;49.90;;;;;;5036205;28;20037;-11
2022/08/26 08:09:48;;;;;;;11.45;6.53;;;31.40;49.60;;;;;;5036187;28;20025;-10
2022/08/26 08:12:15;;;;;;;10.05;6.85;;;31.80;48.30;;;;;;5035868;28;20037;-11
2022/08/26 08:14:44;;;;;;;8.25;6.15;;;32.10;48.40;;;;;;5036045;28;20021;-10
2022/08/26 08:17:11;;;;;;;9.63;6.65;;;32.40;47.70;;;;;;5035976;28;20112;-11
2022/08/26 08:19:37;;;;;;;11.32;6.68;;;32.90;46.40;;;;;;5036467;28;20527;-10
2022/08/26 08:22:04;;;;;;;10.38;6.95;;;33.30;45.50;;;;;;5035597;28;20030;-11
2022/08/26 08:24:34;;;;;;;9.48;5.72;;;33.60;44.70;;;;;;5035673;28;20036;-11
2022/08/26 08:27:02;;;;;;;9.50;6.43;;;33.80;44.60;;;;;;5035481;28;20053;-10
2022/08/26 08:29:31;;;;;;;8.88;6.03;;;33.90;44.30;;;;;;5035656;28;20045;-11
2022/08/26 08:31:57;;;;;;;9.85;5.93;;;33.90;44.60;;;;;;5035545;28;20043;-11
2022/08/26 08:34:27;;;;;;;8.48;5.80;;;33.70;44.60;;;;;;5035882;28;20103;-10
2022/08/26 08:36:53;;;;;;;8.70;6.18;;;33.60;44.70;;;;;;5035553;28;20030;-11
2022/08/26 08:39:19;;;;;;;9.98;5.78;;;33.60;45.00;;;;;;5035629;28;20087;-11
2022/08/26 08:42:29;;;;;;;9.23;6.20;;;33.50;44.70;;;;;;5035379;28;20056;-11
2022/08/26 08:45:00;;;;;;;10.18;6.07;;;33.50;42.20;;;;;;5035072;28;20079;-11
2022/08/26 08:47:35;;;;;;;10.15;6.60;;;33.50;42.70;;;;;;5035529;28;20013;-11
2022/08/26 08:50:20;;;;;;;8.05;5.50;;;33.40;42.90;;;;;;5035281;28;20433;-11
2022/08/26 08:52:59;;;;;;;9.68;6.22;;;33.40;43.70;;;;;;5034277;28;20037;-10
2022/08/26 08:55:35;;;;;;;11.13;6.60;;;33.40;42.30;;;;;;5035089;28;20557;-10
2022/08/26 08:58:34;;;;;;;8.52;5.80;;;33.40;42.50;;;;;;5035357;28;20029;-10
2022/08/26 09:01:04;;;;;;;10.52;6.53;;;33.20;42.20;;;;;;5034655;28;20103;-10
2022/08/26 09:04:00;;;;;;;8.10;5.55;;;33.20;43.20;;;;;;5035609;28;20036;-10
2022/08/26 09:06:27;;;;;;;11.73;6.13;;;33.30;43.10;;;;;;5035298;28;20031;-10
2022/08/26 09:08:54;;;;;;;9.82;6.20;;;33.40;43.20;;;;;;5034563;28;20549;-10
2022/08/26 09:11:21;;;;;;;7.78;5.50;;;33.40;43.30;;;;;;5034620;28;20160;-11
2022/08/26 09:13:51;;;;;;;7.97;5.68;;;33.40;43.40;;;;;;5034810;28;20393;-11
2022/08/26 09:16:26;;;;;;;7.95;5.65;;;33.70;43.10;;;;;;5034719;28;20022;-11
2022/08/26 09:18:55;;;;;;;14.23;6.78;;;34.00;42.30;;;;;;5034722;28;20056;-11
2022/08/26 09:21:23;;;;;;;11.50;6.70;;;34.10;42.10;;;;;;5034563;28;20430;-10
2022/08/26 09:23:52;;;;;;;9.75;6.15;;;33.90;42.30;;;;;;5034522;28;20478;-10
2022/08/26 09:26:28;;;;;;;9.02;5.63;;;34.00;42.30;;;;;;5034831;28;20101;-10
2022/08/26 09:28:54;;;;;;;9.93;6.00;;;34.30;42.00;;;;;;5034466;28;20050;-11
2022/08/26 09:31:28;;;;;;;10.43;5.78;;;34.50;41.80;;;;;;5034670;28;20047;-11
2022/08/26 09:34:25;;;;;;;8.45;5.63;;;34.80;41.70;;;;;;5034777;28;20033;-10
2022/08/26 09:36:58;;;;;;;8.77;5.88;;;35.20;41.10;;;;;;5034168;28;20036;-11
2022/08/26 09:39:29;;;;;;;9.35;6.40;;;35.60;40.00;;;;;;5034488;28;20114;-11
2022/08/26 09:42:23;;;;;;;8.73;5.75;;;35.90;38.80;;;;;;5034588;28;20025;-10
2022/08/26 09:44:56;;;;;;;8.40;5.65;;;36.00;39.20;;;;;;5034206;28;20393;-11
2022/08/26 09:47:24;;;;;;;;;;;36.40;38.20;;;;;;5034539;28;20033;-11
2022/08/26 09:50:25;;;;;;;9.45;5.43;;;36.40;37.50;;;;;;5034055;28;19905;-11
2022/08/26 09:53:26;;;;;;;9.25;5.95;;;36.50;38.70;;;;;;5031972;28;20549;-11
2022/08/26 09:56:10;;;;;;;8.40;5.72;;;36.60;37.00;;;;;;5034143;28;20025;-11
2022/08/26 09:58:41;;;;;;;10.38;5.65;;;36.80;37.10;;;;;;5034307;28;20103;-11
2022/08/26 10:01:22;;;;;;;10.15;4.97;;;37.00;37.50;;;;;;5033816;28;20037;-11
2022/08/26 10:03:50;;;;;;;9.40;5.32;;;37.20;37.50;;;;;;5034193;28;20022;-10
2022/08/26 10:06:16;;;;;;;10.20;5.53;;;37.60;37.00;;;;;;5033769;28;20028;-10
2022/08/26 10:09:13;;;;;;;8.60;6.00;;;37.90;36.00;;;;;;5034276;28;20033;-10
2022/08/26 10:11:45;;;;;;;9.40;5.78;;;38.20;35.30;;;;;;5015084;28;20048;-10
2022/08/26 10:14:11;;;;;;;9.50;5.57;;;38.40;35.60;;;;;;5031889;28;20092;-11
2022/08/26 10:17:12;;;;;;;7.40;5.15;;;38.60;34.70;;;;;;5031537;28;20112;-10
2022/08/26 10:19:47;;;;;;;11.88;5.63;;;38.80;34.40;;;;;;5024321;28;20113;-11
2022/08/26 10:22:36;;;;;;;11.50;5.43;;;38.90;33.80;;;;;;5031813;28;20481;-11
2022/08/26 10:25:07;;;;;;;9.13;5.35;;;39.00;34.00;;;;;;5031313;28;20029;-10
2022/08/26 10:27:52;;;;;;;9.32;5.70;;;39.20;34.50;;;;;;5032025;28;20033;-10
2022/08/26 10:30:23;;;;;;;8.48;5.25;;;39.40;33.40;;;;;;5031279;28;20041;-11
2022/08/26 10:32:55;;;;;;;9.68;5.60;;;39.40;34.30;;;;;;5031436;28;20029;-10
2022/08/26 10:35:25;;;;;;;8.20;5.05;;;39.50;33.70;;;;;;5031444;28;20045;-10
2022/08/26 10:37:55;;;;;;;7.50;5.15;;;39.60;34.00;;;;;;5031130;28;20104;-11
2022/08/26 10:40:33;;;;;;;8.43;5.68;;;39.80;33.60;;;;;;5031295;28;20084;-11
2022/08/26 10:43:28;;;;;;;9.90;5.28;;;39.80;33.50;;;;;;5030996;28;20025;-11
2022/08/26 10:46:00;;;;;;;8.48;5.50;;;39.90;33.30;;;;;;5031559;28;20091;-11
2022/08/26 10:48:42;;;;;;;8.30;4.88;;;40.00;32.40;;;;;;5032650;28;20029;-11
2022/08/26 10:51:09;;;;;;;;;;;40.20;32.00;;;;;;5033518;28;20128;-10
2022/08/26 10:53:46;;;;;;;7.72;5.07;;;40.40;30.90;;;;;;5033808;28;19909;-11
2022/08/26 10:56:47;;;;;;;9.35;4.90;;;40.60;31.10;;;;;;5033371;28;20478;-10
2022/08/26 10:59:34;;;;;;;11.85;5.90;;;40.80;30.00;;;;;;5033399;28;20152;-11
2022/08/26 11:02:10;;;;;;;8.07;4.93;;;40.60;30.00;;;;;;5033329;28;20017;-11
2022/08/26 11:04:59;;;;;;;10.20;5.10;;;40.30;31.30;;;;;;5033052;28;20026;-11
2022/08/26 11:07:36;;;;;;;9.13;5.10;;;40.20;31.80;;;;;;5033231;28;20116;-11
2022/08/26 11:10:05;;;;;;;9.32;5.70;;;40.30;32.00;;;;;;5032899;28;20026;-10
2022/08/26 11:12:37;;;;;;;8.70;5.60;;;40.20;31.50;;;;;;5033131;28;20042;-10
2022/08/26 11:15:07;;;;;;;;;;;39.60;32.20;;;;;;5034462;28;20037;-11
2022/08/26 11:17:45;;;;;;;12.15;5.88;;;39.20;32.80;;;;;;5037251;28;19958;-11
2022/08/26 11:20:26;;;;;;;7.30;5.25;;;39.00;32.70;;;;;;5036895;28;20029;-11
2022/08/26 11:22:54;;;;;;;10.50;5.32;;;39.10;33.30;;;;;;5036735;28;20075;-11
2022/08/26 11:25:25;;;;;;;8.60;5.05;;;39.40;32.70;;;;;;5037243;28;20490;-10
2022/08/26 11:27:54;;;;;;;10.65;5.40;;;39.60;32.00;;;;;;5036923;28;20025;-11
2022/08/26 11:30:21;;;;;;;9.65;5.40;;;40.00;32.30;;;;;;5036672;28;20033;-11
2022/08/26 11:32:54;;;;;;;10.23;5.43;;;40.50;31.30;;;;;;5036759;28;20535;-11
2022/08/26 11:35:20;;;;;;;8.02;4.82;;;40.90;31.10;;;;;;5036614;28;20029;-10
2022/08/26 11:37:56;;;;;;;10.48;5.60;;;41.30;31.00;;;;;;5036756;28;20044;-11
2022/08/26 11:40:37;;;;;;;8.68;4.95;;;41.50;30.70;;;;;;5036617;28;20022;-11
2022/08/26 11:43:23;;;;;;;7.85;5.22;;;41.60;30.30;;;;;;5036337;28;20048;-11
2022/08/26 11:46:04;;;;;;;8.55;5.50;;;41.90;28.10;;;;;;5036457;28;20021;-10
2022/08/26 11:48:32;;;;;;;13.13;5.07;;;41.80;29.40;;;;;;5037278;28;20032;-11
2022/08/26 11:51:30;;;;;;;7.35;4.90;;;42.00;29.70;;;;;;5036022;28;20033;-11
2022/08/26 11:54:21;;;;;;;7.68;4.72;;;42.30;29.40;;;;;;5034157;28;20056;-10
2022/08/26 11:56:49;;;;;;;10.48;4.90;;;42.60;28.80;;;;;;5024762;28;20034;-11
2022/08/26 11:59:37;;;;;;;9.55;5.20;;;42.90;28.10;;;;;;5034218;28;20033;-11
2022/08/26 12:02:11;;;;;;;8.65;5.10;;;43.00;27.60;;;;;;5034118;28;20056;-11
2022/08/26 12:04:40;;;;;;;8.27;4.85;;;42.90;27.50;;;;;;5034283;28;20076;-11
2022/08/26 12:07:08;;;;;;;7.90;4.97;;;42.50;28.10;;;;;;5033820;28;20032;-10
2022/08/26 12:09:36;;;;;;;9.40;5.13;;;42.10;28.90;;;;;;5033953;28;20033;-11
2022/08/26 12:12:28;;;;;;;9.98;5.45;;;42.00;29.10;;;;;;5034154;28;20113;-11
2022/08/26 12:15:16;;;;;;;10.77;5.78;;;41.90;28.30;;;;;;5033691;28;20030;-11
2022/08/26 12:17:44;;;;;;;7.45;5.00;;;41.80;27.60;;;;;;5034699;28;20037;-11
2022/08/26 12:20:54;;;;;;;8.55;4.80;;;41.90;29.10;;;;;;5034412;28;20037;-10
2022/08/26 12:23:45;;;;;;;6.63;4.40;;;41.90;28.60;;;;;;5033632;28;20033;-11
2022/08/26 12:26:31;;;;;;;13.50;5.63;;;42.30;28.70;;;;;;5032555;28;20026;-11
2022/08/26 12:29:06;;;;;;;9.05;5.55;;;42.70;28.60;;;;;;5033751;28;20057;-11
2022/08/26 12:31:36;;;;;;;9.73;5.18;;;43.00;27.80;;;;;;5035872;28;20116;-11
2022/08/26 12:34:06;;;;;;;7.88;4.90;;;43.10;27.80;;;;;;5035734;28;20454;-11
2022/08/26 12:37:11;;;;;;;8.40;5.22;;;43.20;28.20;;;;;;5035841;28;20048;-11
2022/08/26 12:39:40;;;;;;;9.43;4.97;;;43.50;26.50;;;;;;5033464;28;20029;-10
2022/08/26 12:42:12;;;;;;;14.57;5.45;;;43.90;27.70;;;;;;5033283;28;20033;-10
2022/08/26 12:44:49;;;;;;;11.27;5.45;;;44.20;26.90;;;;;;5034031;28;20076;-10
2022/08/26 12:47:24;;;;;;;9.93;4.90;;;43.90;26.60;;;;;;5033309;28;20583;-11
2022/08/26 12:50:05;;;;;;;11.20;5.60;;;43.30;27.20;;;;;;5033159;28;20034;-11
2022/08/26 12:52:37;;;;;;;8.32;5.38;;;43.10;27.10;;;;;;5033354;28;20029;-11
2022/08/26 12:55:17;;;;;;;10.00;5.07;;;43.00;26.90;;;;;;5032855;28;20474;-11
2022/08/26 12:57:43;;;;;;;11.23;5.63;;;42.60;27.50;;;;;;5033055;28;20046;-11
2022/08/26 13:00:29;;;;;;;10.68;5.45;;;42.40;27.70;;;;;;5032939;28;20025;-11
2022/08/26 13:02:56;;;;;;;10.98;5.70;;;42.00;27.00;;;;;;5032705;28;20036;-11
2022/08/26 13:05:26;;;;;;;9.10;5.70;;;41.50;28.90;;;;;;5032892;28;20378;-11
2022/08/26 13:08:28;;;;;;;8.50;5.32;;;41.40;28.90;;;;;;5032743;28;20068;-11
2022/08/26 13:11:12;;;;;;;11.02;5.80;;;41.40;28.80;;;;;;5034219;28;20049;-11
2022/08/26 13:13:39;;;;;;;7.88;4.82;;;41.50;28.80;;;;;;5034843;28;20478;-11